sensor_id;sensor_type;location;lat;lon;timestamp;pressure;altitude;pressure_sealevel;temperature;humidity
47913;BME280;33676;51.006;17.180;2022-10-16T00:01:45;100159.52;;;12.28;100.00
47913;BME280;33676;51.006;17.180;2022-10-16T00:04:14;100158.08;;;12.27;100.00
47913;BME280;33676;51.006;17.180;2022-10-16T00:06:42;100158.80;;;12.24;100.00
47913;BME280;33676;51.006;17.180;2022-10-16T00:09:10;100164.81;;;12.22;100.00
47913;BME280;33676;51.006;17.180;2022-10-16T00:11:40;100159.38;;;12.20;100.00
47913;BME280;33676;51.006;17.180;2022-10-16T00:14:14;100165.54;;;12.19;100.00
47913;BME280;33676;51.006;17.180;2022-10-16T00:16:42;100161.39;;;12.17;100.00
47913;BME280;33676;51.006;17.180;2022-10-16T00:19:11;100166.00;;;12.16;100.00
47913;BME280;33676;51.006;17.180;2022-10-16T00:21:40;100163.11;;;12.15;100.00
47913;BME280;33676;51.006;17.180;2022-10-16T00:24:10;100163.17;;;12.14;100.00
47913;BME280;33676;51.006;17.180;2022-10-16T00:26:39;100164.85;;;12.13;100.00
47913;BME280;33676;51.006;17.180;2022-10-16T00:29:08;100163.54;;;12.12;100.00
47913;BME280;33676;51.006;17.180;2022-10-16T00:31:37;100165.02;;;12.11;100.00
47913;BME280;33676;51.006;17.180;2022-10-16T00:34:05;100163.05;;;12.10;100.00
47913;BME280;33676;51.006;17.180;2022-10-16T00:36:33;100162.65;;;12.08;100.00
47913;BME280;33676;51.006;17.180;2022-10-16T00:39:02;100156.58;;;12.07;100.00
47913;BME280;33676;51.006;17.180;2022-10-16T00:41:32;100153.48;;;12.07;100.00
47913;BME280;33676;51.006;17.180;2022-10-16T00:44:40;100160.54;;;12.06;100.00
47913;BME280;33676;51.006;17.180;2022-10-16T00:46:52;100159.17;;;12.06;100.00
47913;BME280;33676;51.006;17.180;2022-10-16T00:49:20;100158.55;;;12.07;100.00
47913;BME280;33676;51.006;17.180;2022-10-16T00:51:52;100162.52;;;12.08;100.00
47913;BME280;33676;51.006;17.180;2022-10-16T00:54:28;100159.08;;;12.07;100.00
47913;BME280;33676;51.006;17.180;2022-10-16T00:57:01;100159.13;;;12.07;100.00
47913;BME280;33676;51.006;17.180;2022-10-16T00:59:40;100170.83;;;12.07;100.00
47913;BME280;33676;51.006;17.180;2022-10-16T01:02:14;100170.41;;;12.07;100.00
47913;BME280;33676;51.006;17.180;2022-10-16T01:04:51;100171.23;;;12.09;100.00
47913;BME280;33676;51.006;17.180;2022-10-16T01:10:52;100169.98;;;12.09;100.00
47913;BME280;33676;51.006;17.180;2022-10-16T01:13:33;100168.27;;;12.08;100.00
47913;BME280;33676;51.006;17.180;2022-10-16T01:16:13;100167.76;;;12.08;100.00
47913;BME280;33676;51.006;17.180;2022-10-16T01:18:55;100165.30;;;12.08;100.00
47913;BME280;33676;51.006;17.180;2022-10-16T01:21:33;100164.91;;;12.08;100.00
47913;BME280;33676;51.006;17.180;2022-10-16T01:24:11;100160.54;;;12.08;100.00
47913;BME280;33676;51.006;17.180;2022-10-16T01:30:10;100170.27;;;12.11;100.00
47913;BME280;33676;51.006;17.180;2022-10-16T01:32:57;100170.18;;;12.12;100.00
47913;BME280;33676;51.006;17.180;2022-10-16T01:35:47;100167.86;;;12.13;100.00
47913;BME280;33676;51.006;17.180;2022-10-16T01:38:34;100169.70;;;12.14;100.00
47913;BME280;33676;51.006;17.180;2022-10-16T01:41:15;100167.48;;;12.15;100.00
47913;BME280;33676;51.006;17.180;2022-10-16T01:43:53;100164.45;;;12.16;100.00
47913;BME280;33676;51.006;17.180;2022-10-16T01:46:26;100164.86;;;12.17;100.00
47913;BME280;33676;51.006;17.180;2022-10-16T01:48:55;100162.21;;;12.17;100.00
47913;BME280;33676;51.006;17.180;2022-10-16T01:51:24;100161.83;;;12.17;100.00
47913;BME280;33676;51.006;17.180;2022-10-16T01:53:56;100162.44;;;12.19;100.00
47913;BME280;33676;51.006;17.180;2022-10-16T01:56:27;100162.23;;;12.19;100.00
47913;BME280;33676;51.006;17.180;2022-10-16T01:59:05;100163.98;;;12.21;100.00
47913;BME280;33676;51.006;17.180;2022-10-16T02:01:38;100172.20;;;12.23;100.00
47913;BME280;33676;51.006;17.180;2022-10-16T02:04:38;100165.04;;;12.25;100.00
47913;BME280;33676;51.006;17.180;2022-10-16T02:07:05;100164.36;;;12.27;100.00
47913;BME280;33676;51.006;17.180;2022-10-16T02:09:35;100164.87;;;12.29;100.00
47913;BME280;33676;51.006;17.180;2022-10-16T02:12:28;100164.14;;;12.33;100.00
47913;BME280;33676;51.006;17.180;2022-10-16T02:14:58;100164.07;;;12.38;100.00
47913;BME280;33676;51.006;17.180;2022-10-16T02:17:28;100170.98;;;12.43;100.00
47913;BME280;33676;51.006;17.180;2022-10-16T02:19:57;100177.98;;;12.49;100.00
47913;BME280;33676;51.006;17.180;2022-10-16T02:22:35;100174.86;;;12.55;100.00
47913;BME280;33676;51.006;17.180;2022-10-16T02:30:36;100181.41;;;12.70;100.00
47913;BME280;33676;51.006;17.180;2022-10-16T02:33:10;100179.77;;;12.77;100.00
47913;BME280;33676;51.006;17.180;2022-10-16T02:35:43;100181.94;;;12.82;100.00
47913;BME280;33676;51.006;17.180;2022-10-16T02:38:15;100184.73;;;12.88;100.00
47913;BME280;33676;51.006;17.180;2022-10-16T02:40:44;100187.83;;;12.92;100.00
47913;BME280;33676;51.006;17.180;2022-10-16T02:43:13;100191.52;;;12.99;100.00
47913;BME280;33676;51.006;17.180;2022-10-16T02:45:41;100193.49;;;13.04;100.00
47913;BME280;33676;51.006;17.180;2022-10-16T02:48:09;100193.89;;;13.09;100.00
47913;BME280;33676;51.006;17.180;2022-10-16T02:50:37;100197.19;;;13.13;100.00
47913;BME280;33676;51.006;17.180;2022-10-16T02:53:06;100200.41;;;13.17;100.00
47913;BME280;33676;51.006;17.180;2022-10-16T02:55:34;100205.23;;;13.19;100.00
47913;BME280;33676;51.006;17.180;2022-10-16T02:58:05;100203.30;;;13.21;100.00
47913;BME280;33676;51.006;17.180;2022-10-16T03:00:33;100203.08;;;13.24;100.00
47913;BME280;33676;51.006;17.180;2022-10-16T03:03:01;100203.74;;;13.26;100.00
47913;BME280;33676;51.006;17.180;2022-10-16T03:05:29;100206.94;;;13.28;100.00
47913;BME280;33676;51.006;17.180;2022-10-16T03:07:58;100204.48;;;13.30;100.00
47913;BME280;33676;51.006;17.180;2022-10-16T03:10:28;100209.27;;;13.32;100.00
47913;BME280;33676;51.006;17.180;2022-10-16T03:12:56;100206.88;;;13.33;100.00
47913;BME280;33676;51.006;17.180;2022-10-16T03:15:25;100207.35;;;13.33;100.00
47913;BME280;33676;51.006;17.180;2022-10-16T03:17:54;100212.48;;;13.33;100.00
47913;BME280;33676;51.006;17.180;2022-10-16T03:20:22;100211.98;;;13.33;100.00
47913;BME280;33676;51.006;17.180;2022-10-16T03:22:50;100209.54;;;13.33;100.00
47913;BME280;33676;51.006;17.180;2022-10-16T03:25:19;100207.96;;;13.32;100.00
47913;BME280;33676;51.006;17.180;2022-10-16T03:27:47;100210.42;;;13.32;100.00
47913;BME280;33676;51.006;17.180;2022-10-16T03:30:15;100208.98;;;13.33;100.00
47913;BME280;33676;51.006;17.180;2022-10-16T03:32:44;100208.68;;;13.32;100.00
47913;BME280;33676;51.006;17.180;2022-10-16T03:35:13;100217.58;;;13.33;100.00
47913;BME280;33676;51.006;17.180;2022-10-16T03:37:41;100224.90;;;13.35;100.00
47913;BME280;33676;51.006;17.180;2022-10-16T03:40:10;100232.02;;;13.38;100.00
47913;BME280;33676;51.006;17.180;2022-10-16T03:42:38;100230.59;;;13.40;100.00
47913;BME280;33676;51.006;17.180;2022-10-16T03:45:07;100233.58;;;13.42;100.00
47913;BME280;33676;51.006;17.180;2022-10-16T03:47:35;100236.89;;;13.44;100.00
47913;BME280;33676;51.006;17.180;2022-10-16T03:50:04;100240.05;;;13.46;100.00
47913;BME280;33676;51.006;17.180;2022-10-16T03:52:33;100246.20;;;13.48;100.00
47913;BME280;33676;51.006;17.180;2022-10-16T03:55:03;100242.07;;;13.49;100.00
47913;BME280;33676;51.006;17.180;2022-10-16T03:57:31;100235.34;;;13.51;100.00
47913;BME280;33676;51.006;17.180;2022-10-16T04:00:00;100238.23;;;13.54;100.00
47913;BME280;33676;51.006;17.180;2022-10-16T04:02:28;100236.08;;;13.55;100.00
47913;BME280;33676;51.006;17.180;2022-10-16T04:04:56;100237.57;;;13.56;100.00
47913;BME280;33676;51.006;17.180;2022-10-16T04:07:24;100238.48;;;13.55;100.00
47913;BME280;33676;51.006;17.180;2022-10-16T04:09:53;100236.44;;;13.55;100.00
47913;BME280;33676;51.006;17.180;2022-10-16T04:12:21;100243.34;;;13.54;100.00
47913;BME280;33676;51.006;17.180;2022-10-16T04:14:50;100245.80;;;13.52;100.00
47913;BME280;33676;51.006;17.180;2022-10-16T04:17:18;100247.81;;;13.49;100.00
47913;BME280;33676;51.006;17.180;2022-10-16T04:19:46;100249.95;;;13.47;100.00
47913;BME280;33676;51.006;17.180;2022-10-16T04:22:14;100251.80;;;13.46;100.00
47913;BME280;33676;51.006;17.180;2022-10-16T04:24:43;100253.88;;;13.45;100.00
47913;BME280;33676;51.006;17.180;2022-10-16T04:27:11;100253.80;;;13.44;100.00
47913;BME280;33676;51.006;17.180;2022-10-16T04:29:39;100253.35;;;13.43;100.00
47913;BME280;33676;51.006;17.180;2022-10-16T04:32:09;100252.05;;;13.42;100.00
47913;BME280;33676;51.006;17.180;2022-10-16T04:34:39;100247.06;;;13.41;100.00
47913;BME280;33676;51.006;17.180;2022-10-16T04:37:08;100252.19;;;13.40;100.00
47913;BME280;33676;51.006;17.180;2022-10-16T04:39:36;100255.28;;;13.39;100.00
47913;BME280;33676;51.006;17.180;2022-10-16T04:42:04;100260.83;;;13.38;100.00
47913;BME280;33676;51.006;17.180;2022-10-16T04:44:32;100260.35;;;13.35;100.00
47913;BME280;33676;51.006;17.180;2022-10-16T04:47:01;100264.04;;;13.34;100.00
47913;BME280;33676;51.006;17.180;2022-10-16T04:49:29;100263.48;;;13.32;100.00
47913;BME280;33676;51.006;17.180;2022-10-16T04:51:57;100265.05;;;13.30;100.00
47913;BME280;33676;51.006;17.180;2022-10-16T04:54:25;100266.86;;;13.30;100.00
47913;BME280;33676;51.006;17.180;2022-10-16T04:56:54;100269.88;;;13.29;100.00
47913;BME280;33676;51.006;17.180;2022-10-16T04:59:22;100272.13;;;13.29;100.00
47913;BME280;33676;51.006;17.180;2022-10-16T05:01:51;100274.60;;;13.29;100.00
47913;BME280;33676;51.006;17.180;2022-10-16T05:04:19;100268.14;;;13.29;100.00
47913;BME280;33676;51.006;17.180;2022-10-16T05:06:48;100265.53;;;13.29;100.00
47913;BME280;33676;51.006;17.180;2022-10-16T05:09:16;100261.63;;;13.27;100.00
47913;BME280;33676;51.006;17.180;2022-10-16T05:11:44;100264.15;;;13.26;100.00
47913;BME280;33676;51.006;17.180;2022-10-16T05:14:12;100269.98;;;13.25;100.00
47913;BME280;33676;51.006;17.180;2022-10-16T05:16:41;100278.71;;;13.24;100.00
47913;BME280;33676;51.006;17.180;2022-10-16T05:19:09;100280.00;;;13.23;100.00
47913;BME280;33676;51.006;17.180;2022-10-16T05:21:55;100285.92;;;13.22;100.00
47913;BME280;33676;51.006;17.180;2022-10-16T05:24:23;100285.64;;;13.21;100.00
47913;BME280;33676;51.006;17.180;2022-10-16T05:26:52;100290.33;;;13.22;100.00
47913;BME280;33676;51.006;17.180;2022-10-16T05:29:20;100287.17;;;13.24;100.00
47913;BME280;33676;51.006;17.180;2022-10-16T05:31:53;100286.48;;;13.26;100.00
47913;BME280;33676;51.006;17.180;2022-10-16T05:34:21;100284.73;;;13.28;100.00
47913;BME280;33676;51.006;17.180;2022-10-16T05:36:49;100284.41;;;13.30;100.00
47913;BME280;33676;51.006;17.180;2022-10-16T05:39:18;100289.52;;;13.31;100.00
47913;BME280;33676;51.006;17.180;2022-10-16T05:41:49;100292.66;;;13.34;100.00
47913;BME280;33676;51.006;17.180;2022-10-16T05:44:17;100293.41;;;13.37;100.00
47913;BME280;33676;51.006;17.180;2022-10-16T05:46:46;100288.34;;;13.40;100.00
47913;BME280;33676;51.006;17.180;2022-10-16T05:49:15;100293.45;;;13.44;100.00
47913;BME280;33676;51.006;17.180;2022-10-16T05:51:43;100288.20;;;13.48;100.00
47913;BME280;33676;51.006;17.180;2022-10-16T05:54:12;100292.77;;;13.51;100.00
47913;BME280;33676;51.006;17.180;2022-10-16T05:56:40;100298.72;;;13.55;100.00
47913;BME280;33676;51.006;17.180;2022-10-16T05:59:09;100301.77;;;13.61;100.00
47913;BME280;33676;51.006;17.180;2022-10-16T06:01:37;100299.50;;;13.64;100.00
47913;BME280;33676;51.006;17.180;2022-10-16T06:04:14;100301.89;;;13.69;100.00
47913;BME280;33676;51.006;17.180;2022-10-16T06:06:43;100303.25;;;13.73;100.00
47913;BME280;33676;51.006;17.180;2022-10-16T06:09:12;100306.55;;;13.77;100.00
47913;BME280;33676;51.006;17.180;2022-10-16T06:11:40;100312.55;;;13.83;100.00
47913;BME280;33676;51.006;17.180;2022-10-16T06:14:09;100317.27;;;13.89;100.00
47913;BME280;33676;51.006;17.180;2022-10-16T06:16:38;100321.81;;;13.96;100.00
47913;BME280;33676;51.006;17.180;2022-10-16T06:19:06;100320.14;;;14.02;100.00
47913;BME280;33676;51.006;17.180;2022-10-16T06:21:36;100325.58;;;14.12;100.00
47913;BME280;33676;51.006;17.180;2022-10-16T06:24:04;100328.59;;;14.21;100.00
47913;BME280;33676;51.006;17.180;2022-10-16T06:26:32;100330.85;;;14.31;100.00
47913;BME280;33676;51.006;17.180;2022-10-16T06:29:01;100336.54;;;14.41;100.00
47913;BME280;33676;51.006;17.180;2022-10-16T06:31:32;100339.31;;;14.51;100.00
47913;BME280;33676;51.006;17.180;2022-10-16T06:34:04;100337.02;;;14.60;100.00
47913;BME280;33676;51.006;17.180;2022-10-16T06:36:39;100337.20;;;14.70;100.00
47913;BME280;33676;51.006;17.180;2022-10-16T06:39:12;100340.38;;;14.79;100.00
47913;BME280;33676;51.006;17.180;2022-10-16T06:41:42;100338.77;;;14.88;100.00
47913;BME280;33676;51.006;17.180;2022-10-16T06:44:10;100342.89;;;14.97;100.00
47913;BME280;33676;51.006;17.180;2022-10-16T06:46:39;100346.20;;;15.06;100.00
47913;BME280;33676;51.006;17.180;2022-10-16T06:49:07;100349.16;;;15.15;100.00
47913;BME280;33676;51.006;17.180;2022-10-16T06:51:35;100356.66;;;15.24;100.00
47913;BME280;33676;51.006;17.180;2022-10-16T06:54:10;100359.09;;;15.32;100.00
47913;BME280;33676;51.006;17.180;2022-10-16T06:56:38;100367.32;;;15.37;100.00
47913;BME280;33676;51.006;17.180;2022-10-16T06:59:07;100368.67;;;15.45;100.00
47913;BME280;33676;51.006;17.180;2022-10-16T07:01:35;100372.55;;;15.52;100.00
47913;BME280;33676;51.006;17.180;2022-10-16T07:04:03;100370.09;;;15.58;100.00
47913;BME280;33676;51.006;17.180;2022-10-16T07:06:33;100370.23;;;15.64;100.00
47913;BME280;33676;51.006;17.180;2022-10-16T07:09:06;100377.45;;;15.69;100.00
47913;BME280;33676;51.006;17.180;2022-10-16T07:11:37;100379.05;;;15.74;100.00
47913;BME280;33676;51.006;17.180;2022-10-16T07:14:15;100383.80;;;15.80;100.00
47913;BME280;33676;51.006;17.180;2022-10-16T07:16:44;100385.41;;;15.85;100.00
47913;BME280;33676;51.006;17.180;2022-10-16T07:19:13;100389.67;;;15.90;100.00
47913;BME280;33676;51.006;17.180;2022-10-16T07:21:43;100387.38;;;15.96;100.00
47913;BME280;33676;51.006;17.180;2022-10-16T07:24:16;100389.27;;;16.00;100.00
47913;BME280;33676;51.006;17.180;2022-10-16T07:26:45;100392.65;;;16.05;100.00
47913;BME280;33676;51.006;17.180;2022-10-16T07:29:23;100404.47;;;16.11;100.00
47913;BME280;33676;51.006;17.180;2022-10-16T07:31:51;100406.55;;;16.17;100.00
47913;BME280;33676;51.006;17.180;2022-10-16T07:34:20;100404.71;;;16.21;100.00
47913;BME280;33676;51.006;17.180;2022-10-16T07:36:50;100401.31;;;16.27;100.00
47913;BME280;33676;51.006;17.180;2022-10-16T07:39:18;100396.58;;;16.34;100.00
47913;BME280;33676;51.006;17.180;2022-10-16T07:41:47;100399.65;;;16.42;100.00
47913;BME280;33676;51.006;17.180;2022-10-16T07:44:16;100394.36;;;16.50;100.00
47913;BME280;33676;51.006;17.180;2022-10-16T07:46:44;100395.29;;;16.61;100.00
47913;BME280;33676;51.006;17.180;2022-10-16T07:49:12;100394.88;;;16.72;100.00
47913;BME280;33676;51.006;17.180;2022-10-16T07:51:40;100395.81;;;16.83;100.00
47913;BME280;33676;51.006;17.180;2022-10-16T07:54:10;100402.00;;;16.95;100.00
47913;BME280;33676;51.006;17.180;2022-10-16T07:56:38;100404.16;;;17.07;100.00
47913;BME280;33676;51.006;17.180;2022-10-16T07:59:10;100407.27;;;17.17;100.00
47913;BME280;33676;51.006;17.180;2022-10-16T08:01:39;100402.55;;;17.29;100.00
47913;BME280;33676;51.006;17.180;2022-10-16T08:04:08;100402.95;;;17.40;100.00
47913;BME280;33676;51.006;17.180;2022-10-16T08:06:39;100404.83;;;17.51;100.00
47913;BME280;33676;51.006;17.180;2022-10-16T08:09:08;100409.81;;;17.64;100.00
47913;BME280;33676;51.006;17.180;2022-10-16T08:11:37;100405.52;;;17.77;100.00
47913;BME280;33676;51.006;17.180;2022-10-16T08:14:05;100407.64;;;17.89;100.00
47913;BME280;33676;51.006;17.180;2022-10-16T08:16:33;100409.09;;;18.01;100.00
47913;BME280;33676;51.006;17.180;2022-10-16T08:19:02;100413.35;;;18.12;100.00
47913;BME280;33676;51.006;17.180;2022-10-16T08:21:30;100410.45;;;18.22;100.00
47913;BME280;33676;51.006;17.180;2022-10-16T08:23:59;100411.58;;;18.31;100.00
47913;BME280;33676;51.006;17.180;2022-10-16T08:26:28;100414.73;;;18.39;100.00
47913;BME280;33676;51.006;17.180;2022-10-16T08:28:56;100419.88;;;18.47;100.00
47913;BME280;33676;51.006;17.180;2022-10-16T08:31:24;100423.98;;;18.56;100.00
47913;BME280;33676;51.006;17.180;2022-10-16T08:33:54;100420.92;;;18.63;100.00
47913;BME280;33676;51.006;17.180;2022-10-16T08:36:22;100423.69;;;18.73;100.00
47913;BME280;33676;51.006;17.180;2022-10-16T08:38:51;100432.66;;;18.83;100.00
47913;BME280;33676;51.006;17.180;2022-10-16T08:48:06;100430.31;;;19.13;100.00
47913;BME280;33676;51.006;17.180;2022-10-16T08:50:39;100433.20;;;19.29;100.00
47913;BME280;33676;51.006;17.180;2022-10-16T08:53:17;100436.34;;;19.40;100.00
47913;BME280;33676;51.006;17.180;2022-10-16T08:55:51;100436.78;;;19.47;100.00
47913;BME280;33676;51.006;17.180;2022-10-16T08:58:23;100438.52;;;19.53;100.00
47913;BME280;33676;51.006;17.180;2022-10-16T09:00:57;100441.25;;;19.58;100.00
47913;BME280;33676;51.006;17.180;2022-10-16T09:03:54;100438.63;;;19.66;100.00
47913;BME280;33676;51.006;17.180;2022-10-16T09:12:25;100449.45;;;19.90;100.00
47913;BME280;33676;51.006;17.180;2022-10-16T09:18:12;100452.10;;;20.09;100.00
47913;BME280;33676;51.006;17.180;2022-10-16T09:20:55;100454.82;;;20.19;100.00
47913;BME280;33676;51.006;17.180;2022-10-16T09:23:29;100457.98;;;20.30;100.00
47913;BME280;33676;51.006;17.180;2022-10-16T09:25:58;100459.69;;;20.41;100.00
47913;BME280;33676;51.006;17.180;2022-10-16T09:28:27;100457.73;;;20.55;100.00
47913;BME280;33676;51.006;17.180;2022-10-16T09:30:55;100460.77;;;20.61;100.00
47913;BME280;33676;51.006;17.180;2022-10-16T09:33:29;100461.50;;;20.65;100.00
47913;BME280;33676;51.006;17.180;2022-10-16T09:35:58;100464.41;;;20.75;100.00
47913;BME280;33676;51.006;17.180;2022-10-16T09:38:30;100467.38;;;20.83;100.00
47913;BME280;33676;51.006;17.180;2022-10-16T09:41:01;100471.04;;;20.94;100.00
47913;BME280;33676;51.006;17.180;2022-10-16T09:43:39;100466.64;;;21.01;99.99
47913;BME280;33676;51.006;17.180;2022-10-16T09:49:05;100468.17;;;21.13;99.99
47913;BME280;33676;51.006;17.180;2022-10-16T09:51:44;100465.80;;;21.21;100.00
47913;BME280;33676;51.006;17.180;2022-10-16T09:54:19;100463.88;;;21.29;99.75
47913;BME280;33676;51.006;17.180;2022-10-16T09:56:48;100458.80;;;21.35;99.58
47913;BME280;33676;51.006;17.180;2022-10-16T09:59:22;100462.70;;;21.41;98.76
47913;BME280;33676;51.006;17.180;2022-10-16T10:01:56;100459.38;;;21.43;98.18
47913;BME280;33676;51.006;17.180;2022-10-16T10:04:38;100460.18;;;21.49;98.33
47913;BME280;33676;51.006;17.180;2022-10-16T10:07:17;100461.73;;;21.58;97.82
47913;BME280;33676;51.006;17.180;2022-10-16T10:09:46;100461.25;;;21.68;97.19
47913;BME280;33676;51.006;17.180;2022-10-16T10:12:26;100459.23;;;21.74;97.00
47913;BME280;33676;51.006;17.180;2022-10-16T10:15:17;100461.98;;;21.81;97.06
47913;BME280;33676;51.006;17.180;2022-10-16T10:17:55;100458.79;;;21.91;97.08
47913;BME280;33676;51.006;17.180;2022-10-16T10:20:35;100457.54;;;22.09;97.38
47913;BME280;33676;51.006;17.180;2022-10-16T10:23:24;100457.19;;;22.27;96.73
47913;BME280;33676;51.006;17.180;2022-10-16T10:29:20;100459.86;;;22.66;95.69
47913;BME280;33676;51.006;17.180;2022-10-16T10:33:05;100463.20;;;22.72;95.05
47913;BME280;33676;51.006;17.180;2022-10-16T10:35:23;100464.81;;;22.68;94.49
47913;BME280;33676;51.006;17.180;2022-10-16T10:38:26;100464.34;;;22.84;94.67
47913;BME280;33676;51.006;17.180;2022-10-16T10:50:30;100462.67;;;24.53;92.27
47913;BME280;33676;51.006;17.180;2022-10-16T10:53:08;100461.80;;;24.89;91.29
47913;BME280;33676;51.006;17.180;2022-10-16T10:55:46;100460.48;;;25.14;90.44
47913;BME280;33676;51.006;17.180;2022-10-16T11:01:09;100460.45;;;25.32;87.57
47913;BME280;33676;51.006;17.180;2022-10-16T11:04:13;100460.99;;;25.43;86.37
47913;BME280;33676;51.006;17.180;2022-10-16T11:06:59;100455.83;;;25.41;87.41
47913;BME280;33676;51.006;17.180;2022-10-16T11:09:41;100461.08;;;25.65;87.79
47913;BME280;33676;51.006;17.180;2022-10-16T11:12:28;100472.55;;;25.88;86.91
47913;BME280;33676;51.006;17.180;2022-10-16T11:15:35;100471.70;;;26.03;85.98
47913;BME280;33676;51.006;17.180;2022-10-16T11:18:21;100460.84;;;26.30;86.44
47913;BME280;33676;51.006;17.180;2022-10-16T11:20:55;100457.38;;;26.55;85.74
47913;BME280;33676;51.006;17.180;2022-10-16T11:26:23;100460.97;;;26.85;84.09
47913;BME280;33676;51.006;17.180;2022-10-16T11:28:56;100465.43;;;26.82;83.23
47913;BME280;33676;51.006;17.180;2022-10-16T11:31:36;100469.20;;;26.39;81.14
47913;BME280;33676;51.006;17.180;2022-10-16T11:37:15;100461.09;;;25.37;80.63
47913;BME280;33676;51.006;17.180;2022-10-16T11:39:46;100452.40;;;25.10;81.74
47913;BME280;33676;51.006;17.180;2022-10-16T11:42:32;100448.33;;;24.98;82.10
47913;BME280;33676;51.006;17.180;2022-10-16T11:47:51;100454.38;;;24.69;81.77
47913;BME280;33676;51.006;17.180;2022-10-16T11:50:53;100451.12;;;24.62;81.92
47913;BME280;33676;51.006;17.180;2022-10-16T11:53:58;100449.84;;;24.69;82.26
47913;BME280;33676;51.006;17.180;2022-10-16T11:56:30;100443.77;;;24.66;81.96
47913;BME280;33676;51.006;17.180;2022-10-16T11:59:05;100442.36;;;24.85;82.19
47913;BME280;33676;51.006;17.180;2022-10-16T12:01:42;100445.89;;;25.24;82.20
47913;BME280;33676;51.006;17.180;2022-10-16T12:04:49;100448.52;;;25.73;82.59
47913;BME280;33676;51.006;17.180;2022-10-16T12:07:27;100457.22;;;25.99;82.35
47913;BME280;33676;51.006;17.180;2022-10-16T12:10:19;100456.80;;;25.88;80.91
47913;BME280;33676;51.006;17.180;2022-10-16T12:12:55;100455.80;;;25.51;79.75
47913;BME280;33676;51.006;17.180;2022-10-16T12:15:31;100457.23;;;25.10;79.37
47913;BME280;33676;51.006;17.180;2022-10-16T12:18:24;100461.92;;;24.68;79.30
47913;BME280;33676;51.006;17.180;2022-10-16T12:20:59;100465.11;;;24.31;79.33
47913;BME280;33676;51.006;17.180;2022-10-16T12:23:46;100478.80;;;23.95;79.54
47913;BME280;33676;51.006;17.180;2022-10-16T12:26:31;100482.83;;;23.62;79.63
47913;BME280;33676;51.006;17.180;2022-10-16T12:29:28;100490.89;;;23.29;80.26
47913;BME280;33676;51.006;17.180;2022-10-16T12:31:58;100492.94;;;22.96;80.36
47913;BME280;33676;51.006;17.180;2022-10-16T12:34:30;100494.77;;;22.70;80.68
47913;BME280;33676;51.006;17.180;2022-10-16T12:37:15;100499.63;;;22.49;81.18
47913;BME280;33676;51.006;17.180;2022-10-16T12:39:48;100507.56;;;22.34;81.70
47913;BME280;33676;51.006;17.180;2022-10-16T12:42:33;100511.07;;;22.23;82.29
47913;BME280;33676;51.006;17.180;2022-10-16T12:45:33;100515.52;;;22.20;82.92
47913;BME280;33676;51.006;17.180;2022-10-16T12:48:19;100520.03;;;22.17;83.16
47913;BME280;33676;51.006;17.180;2022-10-16T12:50:48;100517.39;;;22.12;83.37
47913;BME280;33676;51.006;17.180;2022-10-16T12:53:26;100520.41;;;22.06;83.39
47913;BME280;33676;51.006;17.180;2022-10-16T12:56:20;100520.20;;;22.06;83.88
47913;BME280;33676;51.006;17.180;2022-10-16T13:02:18;100522.42;;;21.98;84.15
47913;BME280;33676;51.006;17.180;2022-10-16T13:05:29;100515.48;;;21.93;84.58
47913;BME280;33676;51.006;17.180;2022-10-16T13:28:10;100527.38;;;21.97;86.01
47913;BME280;33676;51.006;17.180;2022-10-16T13:30:44;100531.35;;;22.01;85.94
47913;BME280;33676;51.006;17.180;2022-10-16T13:33:33;100531.86;;;22.09;85.90
47913;BME280;33676;51.006;17.180;2022-10-16T13:36:04;100536.42;;;22.19;86.08
47913;BME280;33676;51.006;17.180;2022-10-16T13:38:35;100537.79;;;22.31;86.09
47913;BME280;33676;51.006;17.180;2022-10-16T13:41:13;100534.82;;;22.56;86.06
47913;BME280;33676;51.006;17.180;2022-10-16T13:43:46;100528.30;;;22.74;85.84
47913;BME280;33676;51.006;17.180;2022-10-16T13:46:23;100523.88;;;22.87;85.68
47913;BME280;33676;51.006;17.180;2022-10-16T13:49:05;100530.10;;;22.98;85.40
47913;BME280;33676;51.006;17.180;2022-10-16T13:51:33;100535.40;;;23.13;85.48
47913;BME280;33676;51.006;17.180;2022-10-16T13:54:02;100541.98;;;23.50;85.70
47913;BME280;33676;51.006;17.180;2022-10-16T13:56:32;100542.92;;;24.14;85.94
47913;BME280;33676;51.006;17.180;2022-10-16T13:59:06;100538.42;;;24.80;85.76
47913;BME280;33676;51.006;17.180;2022-10-16T14:01:43;100542.98;;;25.40;84.82
47913;BME280;33676;51.006;17.180;2022-10-16T14:04:13;100540.71;;;25.91;83.69
47913;BME280;33676;51.006;17.180;2022-10-16T14:06:46;100542.84;;;26.51;83.80
47913;BME280;33676;51.006;17.180;2022-10-16T14:09:30;100539.54;;;26.97;82.30
47913;BME280;33676;51.006;17.180;2022-10-16T14:12:03;100540.65;;;27.34;81.09
47913;BME280;33676;51.006;17.180;2022-10-16T14:14:53;100540.17;;;27.59;79.75
47913;BME280;33676;51.006;17.180;2022-10-16T14:17:30;100549.49;;;27.99;80.11
47913;BME280;33676;51.006;17.180;2022-10-16T14:20:03;100560.74;;;28.54;79.85
47913;BME280;33676;51.006;17.180;2022-10-16T14:22:37;100559.45;;;29.07;79.63
47913;BME280;33676;51.006;17.180;2022-10-16T14:25:26;100562.52;;;29.19;77.92